sensor_id;sensor_type;location;lat;lon;timestamp;pressure;altitude;pressure_sealevel;temperature;humidity
48216;BME280;34005;48.844;10.098;2023-06-14T00:01:53;96234.28;;;15.64;42.57
48216;BME280;34005;48.844;10.098;2023-06-14T00:04:22;96227.06;;;15.60;42.53
48216;BME280;34005;48.844;10.098;2023-06-14T00:06:51;96230.34;;;15.55;42.73
48216;BME280;34005;48.844;10.098;2023-06-14T00:09:20;96235.25;;;15.52;42.61
48216;BME280;34005;48.844;10.098;2023-06-14T00:11:47;96232.28;;;15.48;42.67
48216;BME280;34005;48.844;10.098;2023-06-14T00:14:16;96233.28;;;15.47;43.31
48216;BME280;34005;48.844;10.098;2023-06-14T00:16:44;96235.25;;;15.52;43.53
48216;BME280;34005;48.844;10.098;2023-06-14T00:19:12;96229.19;;;15.51;43.78
48216;BME280;34005;48.844;10.098;2023-06-14T00:21:40;96222.56;;;15.49;44.05
48216;BME280;34005;48.844;10.098;2023-06-14T00:24:08;96217.50;;;15.47;44.09
48216;BME280;34005;48.844;10.098;2023-06-14T00:26:35;96215.34;;;15.44;44.14
48216;BME280;34005;48.844;10.098;2023-06-14T00:29:03;96214.38;;;15.38;44.45
48216;BME280;34005;48.844;10.098;2023-06-14T00:31:32;96219.50;;;15.33;44.28
48216;BME280;34005;48.844;10.098;2023-06-14T00:33:59;96220.19;;;15.29;44.84
48216;BME280;34005;48.844;10.098;2023-06-14T00:36:27;96214.19;;;15.21;44.94
48216;BME280;34005;48.844;10.098;2023-06-14T00:38:55;96219.31;;;15.16;44.82
48216;BME280;34005;48.844;10.098;2023-06-14T00:41:22;96220.75;;;15.12;44.38
48216;BME280;34005;48.844;10.098;2023-06-14T00:43:50;96214.72;;;15.12;44.25
48216;BME280;34005;48.844;10.098;2023-06-14T00:46:18;96213.91;;;15.11;43.81
48216;BME280;34005;48.844;10.098;2023-06-14T00:48:48;96218.00;;;15.07;43.99
48216;BME280;34005;48.844;10.098;2023-06-14T00:51:16;96215.78;;;15.04;44.07
48216;BME280;34005;48.844;10.098;2023-06-14T00:53:44;96210.78;;;15.02;44.02
48216;BME280;34005;48.844;10.098;2023-06-14T00:56:13;96215.06;;;14.97;44.21
48216;BME280;34005;48.844;10.098;2023-06-14T00:58:41;96217.56;;;14.92;44.48
48216;BME280;34005;48.844;10.098;2023-06-14T01:01:10;96219.44;;;14.84;44.63
48216;BME280;34005;48.844;10.098;2023-06-14T01:03:38;96210.63;;;14.79;44.55
48216;BME280;34005;48.844;10.098;2023-06-14T01:06:15;96213.09;;;14.74;45.15
48216;BME280;34005;48.844;10.098;2023-06-14T01:09:02;96220.44;;;14.65;45.62
48216;BME280;34005;48.844;10.098;2023-06-14T01:11:34;96211.22;;;14.56;45.45
48216;BME280;34005;48.844;10.098;2023-06-14T01:14:05;96219.13;;;14.49;45.18
48216;BME280;34005;48.844;10.098;2023-06-14T01:16:34;96216.16;;;14.46;45.35
48216;BME280;34005;48.844;10.098;2023-06-14T01:19:08;96224.03;;;14.46;45.56
48216;BME280;34005;48.844;10.098;2023-06-14T01:21:40;96225.41;;;14.48;45.67
48216;BME280;34005;48.844;10.098;2023-06-14T01:24:10;96213.69;;;14.51;45.72
48216;BME280;34005;48.844;10.098;2023-06-14T01:26:38;96214.13;;;14.48;46.10
48216;BME280;34005;48.844;10.098;2023-06-14T01:29:13;96222.84;;;14.41;46.45
48216;BME280;34005;48.844;10.098;2023-06-14T01:31:43;96209.56;;;14.36;46.70
48216;BME280;34005;48.844;10.098;2023-06-14T01:34:11;96215.69;;;14.30;46.85
48216;BME280;34005;48.844;10.098;2023-06-14T01:36:41;96213.91;;;14.24;46.92
48216;BME280;34005;48.844;10.098;2023-06-14T01:39:11;96209.91;;;14.21;46.82
48216;BME280;34005;48.844;10.098;2023-06-14T01:41:42;96214.75;;;14.18;46.75
48216;BME280;34005;48.844;10.098;2023-06-14T01:44:12;96218.81;;;14.14;47.59
48216;BME280;34005;48.844;10.098;2023-06-14T01:46:42;96218.66;;;14.09;47.67
48216;BME280;34005;48.844;10.098;2023-06-14T01:49:10;96214.84;;;14.05;47.72
48216;BME280;34005;48.844;10.098;2023-06-14T01:51:38;96216.09;;;14.02;47.93
48216;BME280;34005;48.844;10.098;2023-06-14T01:54:06;96205.22;;;13.98;47.89
48216;BME280;34005;48.844;10.098;2023-06-14T01:56:35;96218.75;;;13.95;47.81
48216;BME280;34005;48.844;10.098;2023-06-14T01:59:03;96213.31;;;13.90;47.52
48216;BME280;34005;48.844;10.098;2023-06-14T02:01:30;96214.19;;;13.84;47.42
48216;BME280;34005;48.844;10.098;2023-06-14T02:04:00;96210.38;;;13.80;47.57
48216;BME280;34005;48.844;10.098;2023-06-14T02:06:28;96222.31;;;13.76;47.51
48216;BME280;34005;48.844;10.098;2023-06-14T02:08:56;96217.47;;;13.73;47.84
48216;BME280;34005;48.844;10.098;2023-06-14T02:11:24;96216.31;;;13.69;47.61
48216;BME280;34005;48.844;10.098;2023-06-14T02:13:53;96215.13;;;13.65;48.08
48216;BME280;34005;48.844;10.098;2023-06-14T02:16:21;96223.63;;;13.60;48.19
48216;BME280;34005;48.844;10.098;2023-06-14T02:18:49;96217.97;;;13.56;48.20
48216;BME280;34005;48.844;10.098;2023-06-14T02:21:17;96216.34;;;13.55;47.75
48216;BME280;34005;48.844;10.098;2023-06-14T02:23:45;96216.34;;;13.55;47.97
48216;BME280;34005;48.844;10.098;2023-06-14T02:26:13;96208.13;;;13.52;47.95
48216;BME280;34005;48.844;10.098;2023-06-14T02:28:40;96205.50;;;13.52;47.91
48216;BME280;34005;48.844;10.098;2023-06-14T02:31:09;96212.97;;;13.48;48.05
48216;BME280;34005;48.844;10.098;2023-06-14T02:33:37;96208.97;;;13.46;48.15
48216;BME280;34005;48.844;10.098;2023-06-14T02:36:06;96215.41;;;13.43;48.22
48216;BME280;34005;48.844;10.098;2023-06-14T02:38:33;96212.00;;;13.43;49.07
48216;BME280;34005;48.844;10.098;2023-06-14T02:41:01;96214.63;;;13.43;49.48
48216;BME280;34005;48.844;10.098;2023-06-14T02:43:29;96213.00;;;13.42;49.37
48216;BME280;34005;48.844;10.098;2023-06-14T02:45:57;96209.38;;;13.43;49.23
48216;BME280;34005;48.844;10.098;2023-06-14T02:48:27;96213.81;;;13.42;49.25
48216;BME280;34005;48.844;10.098;2023-06-14T02:50:55;96216.84;;;13.39;49.43
48216;BME280;34005;48.844;10.098;2023-06-14T02:53:23;96214.84;;;13.34;48.94
48216;BME280;34005;48.844;10.098;2023-06-14T02:55:51;96209.97;;;13.38;48.91
48216;BME280;34005;48.844;10.098;2023-06-14T02:58:19;96212.22;;;13.41;48.41
48216;BME280;34005;48.844;10.098;2023-06-14T03:00:46;96213.84;;;13.35;48.40
48216;BME280;34005;48.844;10.098;2023-06-14T03:03:14;96223.72;;;13.33;48.52
48216;BME280;34005;48.844;10.098;2023-06-14T03:05:46;96219.91;;;13.29;49.03
48216;BME280;34005;48.844;10.098;2023-06-14T03:08:16;96218.31;;;13.28;48.70
48216;BME280;34005;48.844;10.098;2023-06-14T03:10:46;96222.91;;;13.26;48.52
48216;BME280;34005;48.844;10.098;2023-06-14T03:13:15;96222.75;;;13.21;48.92
48216;BME280;34005;48.844;10.098;2023-06-14T03:15:43;96222.34;;;13.17;49.28
48216;BME280;34005;48.844;10.098;2023-06-14T03:18:11;96225.38;;;13.14;49.13
48216;BME280;34005;48.844;10.098;2023-06-14T03:20:39;96224.19;;;13.10;48.91
48216;BME280;34005;48.844;10.098;2023-06-14T03:23:08;96230.66;;;13.08;49.52
48216;BME280;34005;48.844;10.098;2023-06-14T03:25:36;96228.41;;;13.05;48.96
48216;BME280;34005;48.844;10.098;2023-06-14T03:28:05;96223.41;;;13.03;48.83
48216;BME280;34005;48.844;10.098;2023-06-14T03:30:33;96231.66;;;13.00;48.89
48216;BME280;34005;48.844;10.098;2023-06-14T03:33:01;96224.22;;;12.97;49.05
48216;BME280;34005;48.844;10.098;2023-06-14T03:35:29;96225.81;;;12.98;49.35
48216;BME280;34005;48.844;10.098;2023-06-14T03:37:57;96231.06;;;12.98;49.47
48216;BME280;34005;48.844;10.098;2023-06-14T03:40:26;96230.06;;;12.99;49.39
48216;BME280;34005;48.844;10.098;2023-06-14T03:42:55;96233.28;;;13.01;49.01
48216;BME280;34005;48.844;10.098;2023-06-14T03:45:23;96235.06;;;13.01;49.08
48216;BME280;34005;48.844;10.098;2023-06-14T03:47:50;96249.19;;;12.99;49.06
48216;BME280;34005;48.844;10.098;2023-06-14T03:50:19;96246.38;;;13.01;49.02
48216;BME280;34005;48.844;10.098;2023-06-14T03:52:48;96244.75;;;13.00;49.16
48216;BME280;34005;48.844;10.098;2023-06-14T03:55:17;96250.78;;;13.07;49.37
48216;BME280;34005;48.844;10.098;2023-06-14T03:57:49;96261.03;;;13.15;50.11
48216;BME280;34005;48.844;10.098;2023-06-14T04:00:17;96268.50;;;13.18;50.65
48216;BME280;34005;48.844;10.098;2023-06-14T04:02:46;96272.69;;;13.26;50.92
48216;BME280;34005;48.844;10.098;2023-06-14T04:05:15;96262.41;;;13.31;51.14
48216;BME280;34005;48.844;10.098;2023-06-14T04:07:45;96266.63;;;13.39;51.13
48216;BME280;34005;48.844;10.098;2023-06-14T04:10:16;96257.91;;;13.52;50.95
48216;BME280;34005;48.844;10.098;2023-06-14T04:12:44;96264.31;;;13.63;50.66
48216;BME280;34005;48.844;10.098;2023-06-14T04:15:13;96266.94;;;13.63;50.63
48216;BME280;34005;48.844;10.098;2023-06-14T04:17:47;96273.00;;;13.56;50.57
48216;BME280;34005;48.844;10.098;2023-06-14T04:20:15;96274.44;;;13.52;50.56
48216;BME280;34005;48.844;10.098;2023-06-14T04:22:43;96271.03;;;13.45;50.79
48216;BME280;34005;48.844;10.098;2023-06-14T04:25:11;96272.88;;;13.38;50.74
48216;BME280;34005;48.844;10.098;2023-06-14T05:59:36;96332.56;;;14.83;50.94
48216;BME280;34005;48.844;10.098;2023-06-14T06:02:04;96326.81;;;14.93;51.28
48216;BME280;34005;48.844;10.098;2023-06-14T06:04:32;96320.66;;;15.06;51.64
48216;BME280;34005;48.844;10.098;2023-06-14T06:07:01;96324.19;;;15.18;50.87
48216;BME280;34005;48.844;10.098;2023-06-14T06:09:30;96323.66;;;15.28;50.84
48216;BME280;34005;48.844;10.098;2023-06-14T06:28:16;96334.47;;;15.93;49.97
48216;BME280;34005;48.844;10.098;2023-06-14T06:30:51;96338.97;;;16.04;49.68
48216;BME280;34005;48.844;10.098;2023-06-14T06:41:44;96335.94;;;16.50;49.24
48216;BME280;34005;48.844;10.098;2023-06-14T06:44:19;96338.84;;;16.60;49.10
48216;BME280;34005;48.844;10.098;2023-06-14T06:47:19;96336.00;;;16.73;48.73
48216;BME280;34005;48.844;10.098;2023-06-14T07:47:05;96373.19;;;19.31;40.68
48216;BME280;34005;48.844;10.098;2023-06-14T07:49:32;96383.09;;;19.41;40.40
48216;BME280;34005;48.844;10.098;2023-06-14T07:52:00;96372.91;;;19.50;40.75
48216;BME280;34005;48.844;10.098;2023-06-14T07:54:28;96379.94;;;19.61;40.29
48216;BME280;34005;48.844;10.098;2023-06-14T07:56:56;96385.16;;;19.73;40.36
48216;BME280;34005;48.844;10.098;2023-06-14T07:59:26;96381.38;;;19.86;40.23
48216;BME280;34005;48.844;10.098;2023-06-14T08:01:54;96384.94;;;19.96;39.58
48216;BME280;34005;48.844;10.098;2023-06-14T08:04:23;96381.59;;;20.06;39.99
48216;BME280;34005;48.844;10.098;2023-06-14T08:06:51;96386.50;;;20.20;39.68
48216;BME280;34005;48.844;10.098;2023-06-14T15:04:48;96387.25;;;24.53;28.02
48216;BME280;34005;48.844;10.098;2023-06-14T15:07:16;96387.25;;;24.53;27.84
48216;BME280;34005;48.844;10.098;2023-06-14T15:09:44;96379.28;;;24.48;28.04
48216;BME280;34005;48.844;10.098;2023-06-14T15:12:11;96378.72;;;24.46;28.39
48216;BME280;34005;48.844;10.098;2023-06-14T15:14:39;96385.66;;;24.47;28.44
48216;BME280;34005;48.844;10.098;2023-06-14T15:17:07;96382.19;;;24.46;27.95
48216;BME280;34005;48.844;10.098;2023-06-14T15:19:34;96384.09;;;24.41;27.90
48216;BME280;34005;48.844;10.098;2023-06-14T15:22:04;96389.72;;;24.34;27.75
48216;BME280;34005;48.844;10.098;2023-06-14T15:24:33;96389.47;;;24.31;28.30
48216;BME280;34005;48.844;10.098;2023-06-14T15:27:09;96390.03;;;24.27;28.66
48216;BME280;34005;48.844;10.098;2023-06-14T15:29:40;96386.84;;;24.25;28.56
48216;BME280;34005;48.844;10.098;2023-06-14T15:32:08;96399.66;;;24.23;28.36
48216;BME280;34005;48.844;10.098;2023-06-14T15:34:37;96397.25;;;24.22;28.48
48216;BME280;34005;48.844;10.098;2023-06-14T15:37:07;96393.53;;;24.18;28.71
48216;BME280;34005;48.844;10.098;2023-06-14T15:39:35;96387.41;;;24.17;28.71
48216;BME280;34005;48.844;10.098;2023-06-14T15:42:03;96391.69;;;24.18;30.00
48216;BME280;34005;48.844;10.098;2023-06-14T15:44:30;96385.28;;;24.19;29.72
48216;BME280;34005;48.844;10.098;2023-06-14T15:46:58;96390.06;;;24.17;29.00
48216;BME280;34005;48.844;10.098;2023-06-14T15:49:26;96381.28;;;24.12;29.53
48216;BME280;34005;48.844;10.098;2023-06-14T15:51:55;96388.28;;;24.08;30.44
48216;BME280;34005;48.844;10.098;2023-06-14T15:54:25;96395.44;;;24.07;29.73
48216;BME280;34005;48.844;10.098;2023-06-14T15:56:52;96385.59;;;24.08;29.40
48216;BME280;34005;48.844;10.098;2023-06-14T15:59:20;96384.78;;;24.07;29.35
48216;BME280;34005;48.844;10.098;2023-06-14T16:01:48;96391.19;;;24.06;29.38
48216;BME280;34005;48.844;10.098;2023-06-14T16:04:15;96384.00;;;24.06;30.39
48216;BME280;34005;48.844;10.098;2023-06-14T16:06:44;96385.59;;;24.08;29.88
48216;BME280;34005;48.844;10.098;2023-06-14T16:09:11;96395.44;;;24.07;29.73
48216;BME280;34005;48.844;10.098;2023-06-14T16:11:40;96391.47;;;24.10;30.08
48216;BME280;34005;48.844;10.098;2023-06-14T16:14:08;96384.50;;;24.14;30.18
48216;BME280;34005;48.844;10.098;2023-06-14T16:16:36;96387.41;;;24.17;30.01
48216;BME280;34005;48.844;10.098;2023-06-14T16:19:04;96383.13;;;24.21;30.53
48216;BME280;34005;48.844;10.098;2023-06-14T16:21:32;96386.84;;;24.25;29.83
48216;BME280;34005;48.844;10.098;2023-06-14T16:24:03;96386.81;;;24.31;29.69
48216;BME280;34005;48.844;10.098;2023-06-14T16:26:33;96398.00;;;24.33;29.38
48216;BME280;34005;48.844;10.098;2023-06-14T16:29:02;96391.09;;;24.32;29.60
48216;BME280;34005;48.844;10.098;2023-06-14T16:31:33;96392.41;;;24.29;29.49
48216;BME280;34005;48.844;10.098;2023-06-14T16:34:01;96393.75;;;24.26;29.56
48216;BME280;34005;48.844;10.098;2023-06-14T16:36:31;96388.72;;;24.25;29.15
48216;BME280;34005;48.844;10.098;2023-06-14T16:38:58;96394.31;;;24.23;29.78
48216;BME280;34005;48.844;10.098;2023-06-14T16:41:26;96396.47;;;24.21;29.70
48216;BME280;34005;48.844;10.098;2023-06-14T16:43:54;96395.66;;;24.21;29.92
48216;BME280;34005;48.844;10.098;2023-06-14T16:46:29;96406.59;;;24.19;29.86
48216;BME280;34005;48.844;10.098;2023-06-14T16:48:57;96402.88;;;24.15;29.95
48216;BME280;34005;48.844;10.098;2023-06-14T16:51:25;96413.00;;;24.13;29.69
48216;BME280;34005;48.844;10.098;2023-06-14T16:53:53;96413.00;;;24.13;29.57
48216;BME280;34005;48.844;10.098;2023-06-14T16:56:22;96413.53;;;24.15;30.21
48216;BME280;34005;48.844;10.098;2023-06-14T16:58:53;96416.72;;;24.17;29.60
48216;BME280;34005;48.844;10.098;2023-06-14T17:01:21;96411.91;;;24.19;29.44
48216;BME280;34005;48.844;10.098;2023-06-14T17:03:51;96419.34;;;24.22;29.50
48216;BME280;34005;48.844;10.098;2023-06-14T17:06:19;96419.09;;;24.24;29.84
48216;BME280;34005;48.844;10.098;2023-06-14T17:08:48;96426.31;;;24.23;30.07
48216;BME280;34005;48.844;10.098;2023-06-14T17:11:20;96423.66;;;24.18;29.65
48216;BME280;34005;48.844;10.098;2023-06-14T17:13:50;96423.16;;;24.11;29.78
48216;BME280;34005;48.844;10.098;2023-06-14T17:16:18;96427.97;;;24.04;30.33
48216;BME280;34005;48.844;10.098;2023-06-14T17:18:46;96431.72;;;23.98;30.49
48216;BME280;34005;48.844;10.098;2023-06-14T17:21:16;96436.00;;;23.94;30.56
48216;BME280;34005;48.844;10.098;2023-06-14T17:23:44;96431.47;;;23.89;30.33
48216;BME280;34005;48.844;10.098;2023-06-14T17:26:11;96433.38;;;23.83;30.70
48216;BME280;34005;48.844;10.098;2023-06-14T17:28:39;96436.81;;;23.79;30.55
48216;BME280;34005;48.844;10.098;2023-06-14T17:31:07;96437.38;;;23.76;30.61
48216;BME280;34005;48.844;10.098;2023-06-14T17:33:35;96438.16;;;23.71;30.19
48216;BME280;34005;48.844;10.098;2023-06-14T17:36:04;96436.03;;;23.68;30.37
48216;BME280;34005;48.844;10.098;2023-06-14T17:38:33;96436.31;;;23.61;30.95
48216;BME280;34005;48.844;10.098;2023-06-14T17:41:02;96443.50;;;23.56;31.16
48216;BME280;34005;48.844;10.098;2023-06-14T17:43:35;96442.97;;;23.54;31.20
48216;BME280;34005;48.844;10.098;2023-06-14T17:46:03;96447.78;;;23.52;31.21
48216;BME280;34005;48.844;10.098;2023-06-14T17:48:31;96450.44;;;23.47;30.52
48216;BME280;34005;48.844;10.098;2023-06-14T17:51:00;96454.16;;;23.40;30.62
48216;BME280;34005;48.844;10.098;2023-06-14T17:53:28;96452.56;;;23.34;31.27
48216;BME280;34005;48.844;10.098;2023-06-14T17:55:57;96462.16;;;23.30;31.02
48216;BME280;34005;48.844;10.098;2023-06-14T17:58:25;96462.69;;;23.27;31.10
48216;BME280;34005;48.844;10.098;2023-06-14T18:00:53;96468.53;;;23.24;30.96
48216;BME280;34005;48.844;10.098;2023-06-14T18:03:20;96473.59;;;23.20;31.11
48216;BME280;34005;48.844;10.098;2023-06-14T18:05:48;96473.06;;;23.18;31.15
48216;BME280;34005;48.844;10.098;2023-06-14T18:08:16;96471.47;;;23.17;31.97
48216;BME280;34005;48.844;10.098;2023-06-14T18:10:44;96475.44;;;23.15;31.62
48216;BME280;34005;48.844;10.098;2023-06-14T18:13:13;96478.66;;;23.12;31.52
48216;BME280;34005;48.844;10.098;2023-06-14T18:15:41;96475.44;;;23.04;31.41
48216;BME280;34005;48.844;10.098;2023-06-14T18:18:08;96477.53;;;22.97;31.38
48216;BME280;34005;48.844;10.098;2023-06-14T18:20:36;96481.22;;;22.91;31.75
48216;BME280;34005;48.844;10.098;2023-06-14T18:23:04;96479.13;;;22.88;31.88
48216;BME280;34005;48.844;10.098;2023-06-14T18:25:32;96490.28;;;22.85;31.99
48216;BME280;34005;48.844;10.098;2023-06-14T18:27:59;96487.34;;;22.81;32.11
48216;BME280;34005;48.844;10.098;2023-06-14T18:30:28;96487.88;;;22.78;31.99
48216;BME280;34005;48.844;10.098;2023-06-14T18:32:58;96486.81;;;22.74;31.97
48216;BME280;34005;48.844;10.098;2023-06-14T18:35:26;96485.72;;;22.70;32.17
48216;BME280;34005;48.844;10.098;2023-06-14T18:37:55;96491.84;;;22.66;32.42
48216;BME280;34005;48.844;10.098;2023-06-14T18:40:22;96494.75;;;22.64;32.30
48216;BME280;34005;48.844;10.098;2023-06-14T18:42:50;96488.09;;;22.61;32.62
48216;BME280;34005;48.844;10.098;2023-06-14T18:45:18;96495.53;;;22.59;32.84
48216;BME280;34005;48.844;10.098;2023-06-14T18:47:47;96497.66;;;22.57;32.96
48216;BME280;34005;48.844;10.098;2023-06-14T18:50:16;96497.66;;;22.57;32.75
48216;BME280;34005;48.844;10.098;2023-06-14T18:52:44;96501.34;;;22.56;32.77
48216;BME280;34005;48.844;10.098;2023-06-14T18:55:12;96502.44;;;22.55;32.80
48216;BME280;34005;48.844;10.098;2023-06-14T18:57:40;96507.19;;;22.53;32.71
48216;BME280;34005;48.844;10.098;2023-06-14T19:00:09;96502.41;;;22.50;32.47
48216;BME280;34005;48.844;10.098;2023-06-14T19:02:36;96504.00;;;22.46;32.76
48216;BME280;34005;48.844;10.098;2023-06-14T19:05:07;96503.44;;;22.44;32.59
48216;BME280;34005;48.844;10.098;2023-06-14T19:07:35;96498.09;;;22.39;32.78
48216;BME280;34005;48.844;10.098;2023-06-14T19:10:03;96502.06;;;22.36;33.04
48216;BME280;34005;48.844;10.098;2023-06-14T19:12:31;96512.97;;;22.35;33.09
48216;BME280;34005;48.844;10.098;2023-06-14T19:14:58;96504.72;;;22.31;33.31
48216;BME280;34005;48.844;10.098;2023-06-14T19:17:31;96512.16;;;22.29;33.00
48216;BME280;34005;48.844;10.098;2023-06-14T19:19:58;96515.06;;;22.28;33.45
48216;BME280;34005;48.844;10.098;2023-06-14T19:22:27;96522.75;;;22.24;33.80
48216;BME280;34005;48.844;10.098;2023-06-14T19:24:55;96518.19;;;22.19;33.96
48216;BME280;34005;48.844;10.098;2023-06-14T19:27:23;96524.00;;;22.16;33.89
48216;BME280;34005;48.844;10.098;2023-06-14T19:29:51;96525.31;;;22.14;34.58
48216;BME280;34005;48.844;10.098;2023-06-14T19:32:18;96526.66;;;22.11;34.41
48216;BME280;34005;48.844;10.098;2023-06-14T19:34:46;96522.34;;;22.05;34.83
48216;BME280;34005;48.844;10.098;2023-06-14T19:37:14;96534.00;;;21.99;34.77
48216;BME280;34005;48.844;10.098;2023-06-14T19:39:43;96535.56;;;21.95;35.48
48216;BME280;34005;48.844;10.098;2023-06-14T19:42:11;96540.84;;;21.90;35.36
48216;BME280;34005;48.844;10.098;2023-06-14T19:44:38;96536.31;;;21.85;35.51
48216;BME280;34005;48.844;10.098;2023-06-14T19:47:06;96543.41;;;21.79;35.80
48216;BME280;34005;48.844;10.098;2023-06-14T19:49:34;96548.69;;;21.74;36.34
48216;BME280;34005;48.844;10.098;2023-06-14T19:52:02;96548.13;;;21.67;36.71
48216;BME280;34005;48.844;10.098;2023-06-14T19:54:30;96556.03;;;21.62;37.13
48216;BME280;34005;48.844;10.098;2023-06-14T19:56:59;96554.66;;;21.54;37.23
48216;BME280;34005;48.844;10.098;2023-06-14T19:59:27;96562.81;;;21.48;37.50
48216;BME280;34005;48.844;10.098;2023-06-14T20:01:57;96561.97;;;21.42;37.41
48216;BME280;34005;48.844;10.098;2023-06-14T20:04:25;96561.03;;;21.31;37.80
48216;BME280;34005;48.844;10.098;2023-06-14T20:06:53;96558.84;;;21.23;37.87
48216;BME280;34005;48.844;10.098;2023-06-14T20:09:24;96568.38;;;21.19;38.15
48216;BME280;34005;48.844;10.098;2023-06-14T20:11:53;96564.06;;;21.13;38.33
48216;BME280;34005;48.844;10.098;2023-06-14T20:14:22;96572.44;;;21.05;38.64
48216;BME280;34005;48.844;10.098;2023-06-14T20:16:49;96563.66;;;20.99;38.50
48216;BME280;34005;48.844;10.098;2023-06-14T20:19:22;96574.19;;;20.94;39.13
48216;BME280;34005;48.844;10.098;2023-06-14T20:21:50;96573.34;;;20.88;38.84
48216;BME280;34005;48.844;10.098;2023-06-14T20:24:18;96571.41;;;20.84;39.05
48216;BME280;34005;48.844;10.098;2023-06-14T20:26:48;96580.09;;;20.79;39.03
48216;BME280;34005;48.844;10.098;2023-06-14T20:29:15;96571.59;;;20.77;39.35
48216;BME280;34005;48.844;10.098;2023-06-14T20:31:45;96573.41;;;20.71;39.62
48216;BME280;34005;48.844;10.098;2023-06-14T20:34:12;96574.38;;;20.65;39.90
48216;BME280;34005;48.844;10.098;2023-06-14T20:36:40;96567.69;;;20.57;39.81
48216;BME280;34005;48.844;10.098;2023-06-14T20:39:08;96566.22;;;20.50;39.73
48216;BME280;34005;48.844;10.098;2023-06-14T20:41:36;96565.59;;;20.43;40.28
48216;BME280;34005;48.844;10.098;2023-06-14T20:44:04;96573.16;;;20.34;40.80
48216;BME280;34005;48.844;10.098;2023-06-14T20:49:50;96578.50;;;20.17;41.13
48216;BME280;34005;48.844;10.098;2023-06-14T20:52:18;96575.78;;;20.12;40.98
48216;BME280;34005;48.844;10.098;2023-06-14T20:55:12;96582.19;;;19.99;41.23
48216;BME280;34005;48.844;10.098;2023-06-14T20:58:18;96578.38;;;19.90;41.82
48216;BME280;34005;48.844;10.098;2023-06-14T22:10:14;96602.00;;;17.82;45.48
48216;BME280;34005;48.844;10.098;2023-06-14T22:12:53;96608.16;;;17.76;45.32
48216;BME280;34005;48.844;10.098;2023-06-14T22:18:31;96601.25;;;17.63;45.54
48216;BME280;34005;48.844;10.098;2023-06-14T22:20:59;96599.50;;;17.57;45.93
48216;BME280;34005;48.844;10.098;2023-06-14T22:23:27;96602.03;;;17.52;46.11
48216;BME280;34005;48.844;10.098;2023-06-14T22:26:05;96599.13;;;17.42;46.10
48216;BME280;34005;48.844;10.098;2023-06-14T22:28:34;96605.28;;;17.36;46.18
48216;BME280;34005;48.844;10.098;2023-06-14T22:31:08;96596.66;;;17.28;46.17
48216;BME280;34005;48.844;10.098;2023-06-14T22:33:39;96599.19;;;17.23;46.29
48216;BME280;34005;48.844;10.098;2023-06-14T22:36:13;96596.97;;;17.20;46.67
48216;BME280;34005;48.844;10.098;2023-06-14T22:38:42;96603.72;;;17.16;46.59
48216;BME280;34005;48.844;10.098;2023-06-14T22:41:17;96598.69;;;17.15;47.10
48216;BME280;34005;48.844;10.098;2023-06-14T22:43:46;96598.44;;;17.16;46.94
48216;BME280;34005;48.844;10.098;2023-06-14T22:46:13;96608.19;;;17.16;46.60
48216;BME280;34005;48.844;10.098;2023-06-14T22:48:49;96612.66;;;17.15;46.92
48216;BME280;34005;48.844;10.098;2023-06-14T22:51:24;96602.81;;;17.11;46.90
48216;BME280;34005;48.844;10.098;2023-06-14T22:53:54;96618.25;;;17.07;47.07
48216;BME280;34005;48.844;10.098;2023-06-14T22:56:28;96611.81;;;17.03;47.47
48216;BME280;34005;48.844;10.098;2023-06-14T22:58:59;96609.41;;;17.01;46.94
48216;BME280;34005;48.844;10.098;2023-06-14T23:01:29;96613.72;;;16.96;46.96
48216;BME280;34005;48.844;10.098;2023-06-14T23:04:00;96615.34;;;16.97;47.55
48216;BME280;34005;48.844;10.098;2023-06-14T23:06:30;96600.69;;;17.01;47.36
48216;BME280;34005;48.844;10.098;2023-06-14T23:09:05;96605.06;;;17.07;46.77
48216;BME280;34005;48.844;10.098;2023-06-14T23:11:37;96606.53;;;17.03;47.38
48216;BME280;34005;48.844;10.098;2023-06-14T23:14:11;96606.41;;;16.98;47.53
48216;BME280;34005;48.844;10.098;2023-06-14T23:16:40;96604.22;;;16.95;47.65
48216;BME280;34005;48.844;10.098;2023-06-14T23:19:14;96607.66;;;16.95;47.72
48216;BME280;34005;48.844;10.098;2023-06-14T23:21:46;96608.44;;;16.96;48.06
48216;BME280;34005;48.844;10.098;2023-06-14T23:24:14;96613.06;;;17.00;47.86
48216;BME280;34005;48.844;10.098;2023-06-14T23:26:45;96611.38;;;17.06;48.13
48216;BME280;34005;48.844;10.098;2023-06-14T23:29:15;96610.03;;;17.15;47.59
48216;BME280;34005;48.844;10.098;2023-06-14T23:31:50;96609.50;;;17.25;47.08
48216;BME280;34005;48.844;10.098;2023-06-14T23:34:20;96604.94;;;17.32;47.00
48216;BME280;34005;48.844;10.098;2023-06-14T23:36:55;96612.31;;;17.42;46.67
48216;BME280;34005;48.844;10.098;2023-06-14T23:39:28;96609.34;;;17.50;46.55
48216;BME280;34005;48.844;10.098;2023-06-14T23:42:08;96609.94;;;17.52;46.22
48216;BME280;34005;48.844;10.098;2023-06-14T23:44:39;96610.38;;;17.49;46.24
48216;BME280;34005;48.844;10.098;2023-06-14T23:47:13;96608.66;;;17.43;46.67
48216;BME280;34005;48.844;10.098;2023-06-14T23:49:43;96600.75;;;17.43;46.78
48216;BME280;34005;48.844;10.098;2023-06-14T23:52:17;96603.72;;;17.46;46.37
48216;BME280;34005;48.844;10.098;2023-06-14T23:54:49;96597.75;;;17.51;46.29
48216;BME280;34005;48.844;10.098;2023-06-14T23:57:25;96608.47;;;17.56;46.01
48216;BME280;34005;48.844;10.098;2023-06-14T23:59:57;96610.06;;;17.57;46.09
